sensor_id;sensor_type;location;lat;lon;timestamp;temperature;humidity
18388;DHT22;9320;50.256;19.026;2023-08-08T00:00:24;15.30;99.90
18388;DHT22;9320;50.256;19.026;2023-08-08T00:02:53;15.30;99.90
18388;DHT22;9320;50.256;19.026;2023-08-08T00:05:21;15.20;99.90
18388;DHT22;9320;50.256;19.026;2023-08-08T00:07:50;15.10;99.90
18388;DHT22;9320;50.256;19.026;2023-08-08T00:10:18;15.10;99.90
18388;DHT22;9320;50.256;19.026;2023-08-08T00:12:46;15.10;99.90
18388;DHT22;9320;50.256;19.026;2023-08-08T00:15:14;14.90;99.90
18388;DHT22;9320;50.256;19.026;2023-08-08T00:17:42;15.00;99.90
18388;DHT22;9320;50.256;19.026;2023-08-08T00:20:12;15.10;99.90
18388;DHT22;9320;50.256;19.026;2023-08-08T00:22:40;15.10;99.90
18388;DHT22;9320;50.256;19.026;2023-08-08T00:25:08;15.10;99.90
18388;DHT22;9320;50.256;19.026;2023-08-08T00:27:36;15.10;99.90
18388;DHT22;9320;50.256;19.026;2023-08-08T00:30:10;15.10;99.90
18388;DHT22;9320;50.256;19.026;2023-08-08T00:32:38;15.00;99.90
18388;DHT22;9320;50.256;19.026;2023-08-08T00:35:07;15.00;99.90
18388;DHT22;9320;50.256;19.026;2023-08-08T00:37:36;15.00;99.90
18388;DHT22;9320;50.256;19.026;2023-08-08T00:40:05;14.90;99.90
18388;DHT22;9320;50.256;19.026;2023-08-08T00:42:34;14.90;99.90
18388;DHT22;9320;50.256;19.026;2023-08-08T00:45:02;14.90;99.90
18388;DHT22;9320;50.256;19.026;2023-08-08T00:47:31;14.90;99.90
18388;DHT22;9320;50.256;19.026;2023-08-08T00:50:00;14.90;99.90
18388;DHT22;9320;50.256;19.026;2023-08-08T00:52:29;14.90;99.90
18388;DHT22;9320;50.256;19.026;2023-08-08T00:54:59;15.00;99.90
18388;DHT22;9320;50.256;19.026;2023-08-08T00:57:28;15.00;99.90
18388;DHT22;9320;50.256;19.026;2023-08-08T00:59:56;15.00;99.90
18388;DHT22;9320;50.256;19.026;2023-08-08T01:02:24;14.90;99.90
18388;DHT22;9320;50.256;19.026;2023-08-08T01:04:52;14.90;99.90
18388;DHT22;9320;50.256;19.026;2023-08-08T01:07:27;14.90;99.90
18388;DHT22;9320;50.256;19.026;2023-08-08T01:10:03;14.80;99.90
18388;DHT22;9320;50.256;19.026;2023-08-08T01:12:38;14.80;99.90
18388;DHT22;9320;50.256;19.026;2023-08-08T01:15:08;14.70;99.90
18388;DHT22;9320;50.256;19.026;2023-08-08T01:17:37;14.60;99.90
18388;DHT22;9320;50.256;19.026;2023-08-08T01:20:06;14.60;99.90
18388;DHT22;9320;50.256;19.026;2023-08-08T01:22:37;14.60;99.90
18388;DHT22;9320;50.256;19.026;2023-08-08T01:25:08;14.50;99.90
18388;DHT22;9320;50.256;19.026;2023-08-08T01:27:37;14.50;99.90
18388;DHT22;9320;50.256;19.026;2023-08-08T01:30:07;14.50;99.90
18388;DHT22;9320;50.256;19.026;2023-08-08T01:32:35;14.40;99.90
18388;DHT22;9320;50.256;19.026;2023-08-08T01:35:04;14.40;99.90
18388;DHT22;9320;50.256;19.026;2023-08-08T01:37:36;14.40;99.90
18388;DHT22;9320;50.256;19.026;2023-08-08T01:40:10;14.40;99.90
18388;DHT22;9320;50.256;19.026;2023-08-08T01:42:40;14.40;99.90
18388;DHT22;9320;50.256;19.026;2023-08-08T01:45:09;14.40;99.90
18388;DHT22;9320;50.256;19.026;2023-08-08T01:47:38;14.30;99.90
18388;DHT22;9320;50.256;19.026;2023-08-08T01:50:07;14.30;99.90
18388;DHT22;9320;50.256;19.026;2023-08-08T01:52:35;14.30;99.90
18388;DHT22;9320;50.256;19.026;2023-08-08T01:55:04;14.30;99.90
18388;DHT22;9320;50.256;19.026;2023-08-08T01:57:34;14.30;99.90
18388;DHT22;9320;50.256;19.026;2023-08-08T02:00:04;14.20;99.90
18388;DHT22;9320;50.256;19.026;2023-08-08T02:02:32;14.20;99.90
18388;DHT22;9320;50.256;19.026;2023-08-08T02:05:02;14.20;99.90
18388;DHT22;9320;50.256;19.026;2023-08-08T02:07:30;14.20;99.90
18388;DHT22;9320;50.256;19.026;2023-08-08T02:09:58;14.20;99.90
18388;DHT22;9320;50.256;19.026;2023-08-08T02:12:26;14.10;99.90
18388;DHT22;9320;50.256;19.026;2023-08-08T02:14:57;14.10;99.90
18388;DHT22;9320;50.256;19.026;2023-08-08T02:17:25;14.00;99.90
18388;DHT22;9320;50.256;19.026;2023-08-08T02:19:53;14.00;99.90
18388;DHT22;9320;50.256;19.026;2023-08-08T02:22:22;13.90;99.90
18388;DHT22;9320;50.256;19.026;2023-08-08T02:24:50;13.90;99.90
18388;DHT22;9320;50.256;19.026;2023-08-08T02:27:18;13.80;99.90
18388;DHT22;9320;50.256;19.026;2023-08-08T02:29:46;13.70;99.90
18388;DHT22;9320;50.256;19.026;2023-08-08T02:32:15;13.70;99.90
18388;DHT22;9320;50.256;19.026;2023-08-08T02:34:43;13.70;99.90
18388;DHT22;9320;50.256;19.026;2023-08-08T02:37:11;13.60;99.90
18388;DHT22;9320;50.256;19.026;2023-08-08T02:39:41;13.70;99.90
18388;DHT22;9320;50.256;19.026;2023-08-08T02:42:09;13.60;99.90
18388;DHT22;9320;50.256;19.026;2023-08-08T02:44:37;13.60;99.90
18388;DHT22;9320;50.256;19.026;2023-08-08T02:47:06;13.60;99.90
18388;DHT22;9320;50.256;19.026;2023-08-08T02:49:35;13.60;99.90
18388;DHT22;9320;50.256;19.026;2023-08-08T02:52:04;13.70;99.90
18388;DHT22;9320;50.256;19.026;2023-08-08T02:54:32;13.70;99.90
18388;DHT22;9320;50.256;19.026;2023-08-08T02:57:00;13.70;99.90
18388;DHT22;9320;50.256;19.026;2023-08-08T02:59:28;13.70;99.90
18388;DHT22;9320;50.256;19.026;2023-08-08T03:01:56;13.70;99.90
18388;DHT22;9320;50.256;19.026;2023-08-08T03:04:25;13.70;99.90
18388;DHT22;9320;50.256;19.026;2023-08-08T03:06:54;13.70;99.90
18388;DHT22;9320;50.256;19.026;2023-08-08T03:09:22;13.80;99.90
18388;DHT22;9320;50.256;19.026;2023-08-08T03:11:50;13.80;99.90
18388;DHT22;9320;50.256;19.026;2023-08-08T03:14:18;13.80;99.90
18388;DHT22;9320;50.256;19.026;2023-08-08T03:16:46;13.80;99.90
18388;DHT22;9320;50.256;19.026;2023-08-08T03:19:14;13.80;99.90
18388;DHT22;9320;50.256;19.026;2023-08-08T03:21:42;13.80;99.90
18388;DHT22;9320;50.256;19.026;2023-08-08T03:24:12;13.80;99.90
18388;DHT22;9320;50.256;19.026;2023-08-08T03:26:40;13.90;99.90
18388;DHT22;9320;50.256;19.026;2023-08-08T03:29:08;13.90;99.90
18388;DHT22;9320;50.256;19.026;2023-08-08T03:31:37;13.90;99.90
18388;DHT22;9320;50.256;19.026;2023-08-08T03:34:05;13.90;99.90
18388;DHT22;9320;50.256;19.026;2023-08-08T03:36:33;14.00;99.90
18388;DHT22;9320;50.256;19.026;2023-08-08T03:39:01;14.00;99.90
18388;DHT22;9320;50.256;19.026;2023-08-08T03:41:31;14.00;99.90
18388;DHT22;9320;50.256;19.026;2023-08-08T03:43:59;13.90;99.90
18388;DHT22;9320;50.256;19.026;2023-08-08T03:46:29;14.00;99.90
18388;DHT22;9320;50.256;19.026;2023-08-08T03:48:57;14.00;99.90
18388;DHT22;9320;50.256;19.026;2023-08-08T03:51:25;14.00;99.90
18388;DHT22;9320;50.256;19.026;2023-08-08T03:53:53;14.00;99.90
18388;DHT22;9320;50.256;19.026;2023-08-08T03:56:21;14.10;99.90
18388;DHT22;9320;50.256;19.026;2023-08-08T03:58:51;14.10;99.90
18388;DHT22;9320;50.256;19.026;2023-08-08T04:01:19;14.10;99.90
18388;DHT22;9320;50.256;19.026;2023-08-08T04:03:47;14.20;99.90
18388;DHT22;9320;50.256;19.026;2023-08-08T04:06:15;14.10;99.90
18388;DHT22;9320;50.256;19.026;2023-08-08T04:08:43;14.20;99.90
18388;DHT22;9320;50.256;19.026;2023-08-08T04:11:11;14.10;99.90
18388;DHT22;9320;50.256;19.026;2023-08-08T04:13:39;14.20;99.90
18388;DHT22;9320;50.256;19.026;2023-08-08T04:16:09;14.30;99.90
18388;DHT22;9320;50.256;19.026;2023-08-08T04:18:37;14.40;99.90
18388;DHT22;9320;50.256;19.026;2023-08-08T04:21:05;14.40;99.90
18388;DHT22;9320;50.256;19.026;2023-08-08T04:23:34;14.60;99.90
18388;DHT22;9320;50.256;19.026;2023-08-08T04:26:02;14.60;99.90
18388;DHT22;9320;50.256;19.026;2023-08-08T04:28:30;14.70;99.90
18388;DHT22;9320;50.256;19.026;2023-08-08T04:30:58;14.70;99.90
18388;DHT22;9320;50.256;19.026;2023-08-08T04:33:27;14.70;99.90
18388;DHT22;9320;50.256;19.026;2023-08-08T04:35:55;14.70;99.90
18388;DHT22;9320;50.256;19.026;2023-08-08T04:38:24;14.70;99.90
18388;DHT22;9320;50.256;19.026;2023-08-08T04:40:52;14.70;99.90
18388;DHT22;9320;50.256;19.026;2023-08-08T04:43:20;14.80;99.90
18388;DHT22;9320;50.256;19.026;2023-08-08T04:45:48;14.70;99.90
18388;DHT22;9320;50.256;19.026;2023-08-08T04:48:16;14.80;99.90
18388;DHT22;9320;50.256;19.026;2023-08-08T04:50:46;14.80;99.90
18388;DHT22;9320;50.256;19.026;2023-08-08T04:53:14;14.80;99.90
18388;DHT22;9320;50.256;19.026;2023-08-08T04:55:42;14.70;99.90
18388;DHT22;9320;50.256;19.026;2023-08-08T04:58:10;14.70;99.90
18388;DHT22;9320;50.256;19.026;2023-08-08T05:00:38;14.60;99.90
18388;DHT22;9320;50.256;19.026;2023-08-08T05:03:06;14.70;99.90
18388;DHT22;9320;50.256;19.026;2023-08-08T05:05:34;14.70;99.90
18388;DHT22;9320;50.256;19.026;2023-08-08T05:08:04;14.70;99.90
18388;DHT22;9320;50.256;19.026;2023-08-08T05:10:32;14.70;99.90
18388;DHT22;9320;50.256;19.026;2023-08-08T05:13:00;14.80;99.90
18388;DHT22;9320;50.256;19.026;2023-08-08T05:15:28;14.80;99.90
18388;DHT22;9320;50.256;19.026;2023-08-08T05:17:56;14.90;99.90
18388;DHT22;9320;50.256;19.026;2023-08-08T05:20:26;15.00;99.90
18388;DHT22;9320;50.256;19.026;2023-08-08T05:22:54;15.10;99.90
18388;DHT22;9320;50.256;19.026;2023-08-08T05:25:23;15.10;99.90
18388;DHT22;9320;50.256;19.026;2023-08-08T05:27:51;15.10;99.90
18388;DHT22;9320;50.256;19.026;2023-08-08T05:30:21;15.10;99.90
18388;DHT22;9320;50.256;19.026;2023-08-08T05:32:49;15.10;99.90
18388;DHT22;9320;50.256;19.026;2023-08-08T05:35:17;15.20;99.90
18388;DHT22;9320;50.256;19.026;2023-08-08T05:37:45;15.10;99.90
18388;DHT22;9320;50.256;19.026;2023-08-08T05:40:13;15.10;99.90
18388;DHT22;9320;50.256;19.026;2023-08-08T05:42:43;15.00;99.90
18388;DHT22;9320;50.256;19.026;2023-08-08T05:45:11;14.90;99.90
18388;DHT22;9320;50.256;19.026;2023-08-08T05:47:39;14.80;99.90
18388;DHT22;9320;50.256;19.026;2023-08-08T05:50:08;14.80;99.90
18388;DHT22;9320;50.256;19.026;2023-08-08T05:52:36;15.00;99.90
18388;DHT22;9320;50.256;19.026;2023-08-08T05:55:04;15.00;99.90
18388;DHT22;9320;50.256;19.026;2023-08-08T05:57:33;14.90;99.90
18388;DHT22;9320;50.256;19.026;2023-08-08T06:00:02;14.90;99.90
18388;DHT22;9320;50.256;19.026;2023-08-08T06:02:32;14.80;99.90
18388;DHT22;9320;50.256;19.026;2023-08-08T06:05:00;14.80;99.90
18388;DHT22;9320;50.256;19.026;2023-08-08T06:07:28;14.80;99.90
18388;DHT22;9320;50.256;19.026;2023-08-08T06:09:56;14.80;99.90
18388;DHT22;9320;50.256;19.026;2023-08-08T06:12:24;14.80;99.90
18388;DHT22;9320;50.256;19.026;2023-08-08T06:14:52;14.80;99.90
18388;DHT22;9320;50.256;19.026;2023-08-08T06:17:21;14.90;99.90
18388;DHT22;9320;50.256;19.026;2023-08-08T06:19:50;14.90;99.90
18388;DHT22;9320;50.256;19.026;2023-08-08T06:22:18;15.00;99.90
18388;DHT22;9320;50.256;19.026;2023-08-08T06:24:49;15.00;99.90
18388;DHT22;9320;50.256;19.026;2023-08-08T06:27:18;15.10;99.90
18388;DHT22;9320;50.256;19.026;2023-08-08T06:29:46;15.10;99.90
18388;DHT22;9320;50.256;19.026;2023-08-08T06:32:14;15.10;99.90
18388;DHT22;9320;50.256;19.026;2023-08-08T06:34:43;15.20;99.90
18388;DHT22;9320;50.256;19.026;2023-08-08T06:37:11;15.30;99.90
18388;DHT22;9320;50.256;19.026;2023-08-08T06:39:40;15.30;99.90
18388;DHT22;9320;50.256;19.026;2023-08-08T06:42:08;15.30;99.90
18388;DHT22;9320;50.256;19.026;2023-08-08T06:44:41;15.40;99.90
18388;DHT22;9320;50.256;19.026;2023-08-08T06:47:09;15.40;99.90
18388;DHT22;9320;50.256;19.026;2023-08-08T06:49:37;15.50;99.90
18388;DHT22;9320;50.256;19.026;2023-08-08T06:52:07;15.60;99.90
18388;DHT22;9320;50.256;19.026;2023-08-08T06:54:35;15.60;99.90
18388;DHT22;9320;50.256;19.026;2023-08-08T06:57:03;15.80;99.90
18388;DHT22;9320;50.256;19.026;2023-08-08T06:59:31;15.90;99.90
18388;DHT22;9320;50.256;19.026;2023-08-08T07:01:59;15.90;99.90
18388;DHT22;9320;50.256;19.026;2023-08-08T07:04:27;16.00;99.90
18388;DHT22;9320;50.256;19.026;2023-08-08T07:06:55;16.10;99.90
18388;DHT22;9320;50.256;19.026;2023-08-08T07:09:25;16.10;99.90
18388;DHT22;9320;50.256;19.026;2023-08-08T07:11:54;16.10;99.90
18388;DHT22;9320;50.256;19.026;2023-08-08T07:14:22;16.20;99.90
18388;DHT22;9320;50.256;19.026;2023-08-08T07:16:50;16.20;99.90
18388;DHT22;9320;50.256;19.026;2023-08-08T07:19:20;16.30;99.90
18388;DHT22;9320;50.256;19.026;2023-08-08T07:21:48;16.50;99.90
18388;DHT22;9320;50.256;19.026;2023-08-08T07:24:17;16.70;99.90
18388;DHT22;9320;50.256;19.026;2023-08-08T07:26:46;16.70;99.90
18388;DHT22;9320;50.256;19.026;2023-08-08T07:29:15;17.00;99.90
18388;DHT22;9320;50.256;19.026;2023-08-08T07:31:43;17.20;99.90
18388;DHT22;9320;50.256;19.026;2023-08-08T07:34:11;17.50;99.90
18388;DHT22;9320;50.256;19.026;2023-08-08T07:36:39;17.70;99.90
18388;DHT22;9320;50.256;19.026;2023-08-08T07:39:07;17.90;99.90
18388;DHT22;9320;50.256;19.026;2023-08-08T07:41:36;18.10;99.00
18388;DHT22;9320;50.256;19.026;2023-08-08T07:44:05;18.20;98.00
18388;DHT22;9320;50.256;19.026;2023-08-08T07:46:33;18.10;97.20
18388;DHT22;9320;50.256;19.026;2023-08-08T07:49:01;18.30;96.40
18388;DHT22;9320;50.256;19.026;2023-08-08T07:51:31;18.10;96.80
18388;DHT22;9320;50.256;19.026;2023-08-08T07:53:59;18.10;96.60
18388;DHT22;9320;50.256;19.026;2023-08-08T07:56:28;17.90;95.80
18388;DHT22;9320;50.256;19.026;2023-08-08T07:58:56;17.80;96.20
18388;DHT22;9320;50.256;19.026;2023-08-08T08:01:25;18.10;96.30
18388;DHT22;9320;50.256;19.026;2023-08-08T08:03:54;18.20;95.50
18388;DHT22;9320;50.256;19.026;2023-08-08T08:06:22;18.30;95.30
18388;DHT22;9320;50.256;19.026;2023-08-08T08:08:50;18.40;95.20
18388;DHT22;9320;50.256;19.026;2023-08-08T08:11:18;18.60;95.00
18388;DHT22;9320;50.256;19.026;2023-08-08T08:13:46;18.90;93.90
18388;DHT22;9320;50.256;19.026;2023-08-08T08:16:14;19.30;92.50
18388;DHT22;9320;50.256;19.026;2023-08-08T08:18:44;19.50;91.10
18388;DHT22;9320;50.256;19.026;2023-08-08T08:21:12;19.40;90.60
18388;DHT22;9320;50.256;19.026;2023-08-08T08:23:40;19.30;89.00
18388;DHT22;9320;50.256;19.026;2023-08-08T08:26:08;19.50;86.80
18388;DHT22;9320;50.256;19.026;2023-08-08T08:28:36;19.70;86.80
18388;DHT22;9320;50.256;19.026;2023-08-08T08:31:06;20.00;86.30
18388;DHT22;9320;50.256;19.026;2023-08-08T08:33:35;19.60;86.30
18388;DHT22;9320;50.256;19.026;2023-08-08T08:36:05;19.50;86.70
18388;DHT22;9320;50.256;19.026;2023-08-08T08:38:33;19.40;88.50
18388;DHT22;9320;50.256;19.026;2023-08-08T08:41:02;19.60;89.70
18388;DHT22;9320;50.256;19.026;2023-08-08T08:43:31;20.00;87.30
18388;DHT22;9320;50.256;19.026;2023-08-08T08:46:00;20.40;84.50
18388;DHT22;9320;50.256;19.026;2023-08-08T08:48:29;20.60;82.90
18388;DHT22;9320;50.256;19.026;2023-08-08T08:50:58;20.60;83.60
18388;DHT22;9320;50.256;19.026;2023-08-08T08:53:28;20.60;79.50
18388;DHT22;9320;50.256;19.026;2023-08-08T08:55:56;20.50;80.80
18388;DHT22;9320;50.256;19.026;2023-08-08T08:58:25;20.30;83.00
18388;DHT22;9320;50.256;19.026;2023-08-08T09:00:55;20.10;82.60
18388;DHT22;9320;50.256;19.026;2023-08-08T09:03:24;19.90;82.90
18388;DHT22;9320;50.256;19.026;2023-08-08T09:05:54;19.50;83.30
18388;DHT22;9320;50.256;19.026;2023-08-08T09:08:22;19.50;83.90
18388;DHT22;9320;50.256;19.026;2023-08-08T09:10:51;19.60;85.70
18388;DHT22;9320;50.256;19.026;2023-08-08T09:13:20;19.80;85.70
18388;DHT22;9320;50.256;19.026;2023-08-08T09:15:49;19.80;84.00
18388;DHT22;9320;50.256;19.026;2023-08-08T09:18:17;19.80;84.20
18388;DHT22;9320;50.256;19.026;2023-08-08T09:20:47;19.80;84.10
18388;DHT22;9320;50.256;19.026;2023-08-08T09:23:16;19.30;88.30
18388;DHT22;9320;50.256;19.026;2023-08-08T09:25:44;18.70;92.10
18388;DHT22;9320;50.256;19.026;2023-08-08T09:28:14;18.30;92.90
18388;DHT22;9320;50.256;19.026;2023-08-08T09:30:42;18.20;94.70
18388;DHT22;9320;50.256;19.026;2023-08-08T09:33:11;18.70;94.20
18388;DHT22;9320;50.256;19.026;2023-08-08T09:35:39;19.00;94.10
18388;DHT22;9320;50.256;19.026;2023-08-08T09:38:07;19.10;93.30
18388;DHT22;9320;50.256;19.026;2023-08-08T09:40:36;19.10;93.30
18388;DHT22;9320;50.256;19.026;2023-08-08T09:43:06;19.40;92.80
18388;DHT22;9320;50.256;19.026;2023-08-08T09:45:39;20.60;91.60
18388;DHT22;9320;50.256;19.026;2023-08-08T09:48:09;21.30;89.00
18388;DHT22;9320;50.256;19.026;2023-08-08T09:50:37;22.60;84.80
18388;DHT22;9320;50.256;19.026;2023-08-08T09:53:07;22.80;80.20
18388;DHT22;9320;50.256;19.026;2023-08-08T09:55:37;21.90;80.70
18388;DHT22;9320;50.256;19.026;2023-08-08T09:58:06;21.30;82.50
18388;DHT22;9320;50.256;19.026;2023-08-08T10:00:35;20.60;84.30
18388;DHT22;9320;50.256;19.026;2023-08-08T10:03:05;20.00;85.70
18388;DHT22;9320;50.256;19.026;2023-08-08T10:05:34;19.60;87.20
18388;DHT22;9320;50.256;19.026;2023-08-08T10:08:04;19.30;84.30
18388;DHT22;9320;50.256;19.026;2023-08-08T10:10:33;19.00;84.80
18388;DHT22;9320;50.256;19.026;2023-08-08T10:13:01;19.10;84.80
18388;DHT22;9320;50.256;19.026;2023-08-08T10:15:30;19.10;85.30
18388;DHT22;9320;50.256;19.026;2023-08-08T10:17:58;22.30;82.40
18388;DHT22;9320;50.256;19.026;2023-08-08T10:20:31;27.10;67.70
18388;DHT22;9320;50.256;19.026;2023-08-08T10:23:02;31.30;53.50
18388;DHT22;9320;50.256;19.026;2023-08-08T10:25:31;35.10;45.90
18388;DHT22;9320;50.256;19.026;2023-08-08T10:28:03;37.00;43.00
18388;DHT22;9320;50.256;19.026;2023-08-08T10:30:53;36.50;40.20
18388;DHT22;9320;50.256;19.026;2023-08-08T10:33:23;34.00;39.10
18388;DHT22;9320;50.256;19.026;2023-08-08T10:35:57;30.10;45.30
18388;DHT22;9320;50.256;19.026;2023-08-08T10:38:37;27.00;48.50
18388;DHT22;9320;50.256;19.026;2023-08-08T10:41:09;25.00;52.50
18388;DHT22;9320;50.256;19.026;2023-08-08T10:43:48;23.50;56.40
18388;DHT22;9320;50.256;19.026;2023-08-08T10:46:23;22.50;59.50
18388;DHT22;9320;50.256;19.026;2023-08-08T10:48:53;21.60;62.70
18388;DHT22;9320;50.256;19.026;2023-08-08T10:51:23;21.10;65.40
18388;DHT22;9320;50.256;19.026;2023-08-08T10:53:52;20.70;66.00
18388;DHT22;9320;50.256;19.026;2023-08-08T10:56:20;20.70;67.40
18388;DHT22;9320;50.256;19.026;2023-08-08T10:58:50;20.50;68.00
18388;DHT22;9320;50.256;19.026;2023-08-08T11:01:18;20.30;69.00
18388;DHT22;9320;50.256;19.026;2023-08-08T11:03:47;20.20;69.80
18388;DHT22;9320;50.256;19.026;2023-08-08T11:06:16;20.40;69.90
18388;DHT22;9320;50.256;19.026;2023-08-08T11:08:47;20.40;70.40
18388;DHT22;9320;50.256;19.026;2023-08-08T11:11:16;20.40;69.90
18388;DHT22;9320;50.256;19.026;2023-08-08T11:13:44;20.30;69.10
18388;DHT22;9320;50.256;19.026;2023-08-08T11:16:14;20.30;69.60
18388;DHT22;9320;50.256;19.026;2023-08-08T11:18:43;20.30;68.90
18388;DHT22;9320;50.256;19.026;2023-08-08T11:21:11;20.50;67.40
18388;DHT22;9320;50.256;19.026;2023-08-08T11:23:47;20.70;68.20
18388;DHT22;9320;50.256;19.026;2023-08-08T11:26:17;20.80;67.60
18388;DHT22;9320;50.256;19.026;2023-08-08T11:28:49;20.70;68.20
18388;DHT22;9320;50.256;19.026;2023-08-08T11:31:18;20.50;66.90
18388;DHT22;9320;50.256;19.026;2023-08-08T11:33:47;20.70;65.70
18388;DHT22;9320;50.256;19.026;2023-08-08T11:36:15;20.70;65.00
18388;DHT22;9320;50.256;19.026;2023-08-08T11:38:44;20.90;65.10
18388;DHT22;9320;50.256;19.026;2023-08-08T11:41:14;21.10;62.50
18388;DHT22;9320;50.256;19.026;2023-08-08T11:43:44;20.90;62.00
18388;DHT22;9320;50.256;19.026;2023-08-08T11:46:13;20.80;62.60
18388;DHT22;9320;50.256;19.026;2023-08-08T11:48:42;20.80;63.10
18388;DHT22;9320;50.256;19.026;2023-08-08T11:51:10;21.00;62.50
18388;DHT22;9320;50.256;19.026;2023-08-08T11:53:48;21.10;62.80
18388;DHT22;9320;50.256;19.026;2023-08-08T11:56:19;21.10;61.70
18388;DHT22;9320;50.256;19.026;2023-08-08T11:58:49;21.00;61.60
18388;DHT22;9320;50.256;19.026;2023-08-08T12:01:19;20.90;59.90
18388;DHT22;9320;50.256;19.026;2023-08-08T12:03:48;20.80;60.20
18388;DHT22;9320;50.256;19.026;2023-08-08T12:06:16;20.70;60.50
18388;DHT22;9320;50.256;19.026;2023-08-08T12:08:46;20.70;61.80
18388;DHT22;9320;50.256;19.026;2023-08-08T12:11:15;20.90;61.80
18388;DHT22;9320;50.256;19.026;2023-08-08T12:13:45;21.00;61.70
18388;DHT22;9320;50.256;19.026;2023-08-08T12:16:14;21.20;61.30
18388;DHT22;9320;50.256;19.026;2023-08-08T12:18:44;21.30;60.00
18388;DHT22;9320;50.256;19.026;2023-08-08T12:21:12;21.30;60.10
18388;DHT22;9320;50.256;19.026;2023-08-08T12:23:40;21.20;60.80
18388;DHT22;9320;50.256;19.026;2023-08-08T12:26:08;21.30;60.80
18388;DHT22;9320;50.256;19.026;2023-08-08T12:28:36;21.20;61.10
18388;DHT22;9320;50.256;19.026;2023-08-08T12:31:06;21.10;61.50
18388;DHT22;9320;50.256;19.026;2023-08-08T12:33:34;21.10;61.90
18388;DHT22;9320;50.256;19.026;2023-08-08T12:36:02;21.10;62.30
18388;DHT22;9320;50.256;19.026;2023-08-08T12:38:30;21.20;62.40
18388;DHT22;9320;50.256;19.026;2023-08-08T12:41:00;21.20;61.60
18388;DHT22;9320;50.256;19.026;2023-08-08T12:43:28;21.10;62.70
18388;DHT22;9320;50.256;19.026;2023-08-08T12:45:56;21.20;62.90
18388;DHT22;9320;50.256;19.026;2023-08-08T12:48:26;21.40;62.00
18388;DHT22;9320;50.256;19.026;2023-08-08T12:50:54;21.20;61.20
18388;DHT22;9320;50.256;19.026;2023-08-08T12:53:22;21.20;60.40
18388;DHT22;9320;50.256;19.026;2023-08-08T12:55:50;21.30;61.10
18388;DHT22;9320;50.256;19.026;2023-08-08T12:58:18;21.50;61.10
18388;DHT22;9320;50.256;19.026;2023-08-08T13:00:46;21.50;60.70
18388;DHT22;9320;50.256;19.026;2023-08-08T13:03:14;21.50;60.00
18388;DHT22;9320;50.256;19.026;2023-08-08T13:05:44;21.40;59.90
18388;DHT22;9320;50.256;19.026;2023-08-08T13:08:12;21.30;60.80
18388;DHT22;9320;50.256;19.026;2023-08-08T13:10:41;21.20;61.10
18388;DHT22;9320;50.256;19.026;2023-08-08T13:13:10;21.20;61.40
18388;DHT22;9320;50.256;19.026;2023-08-08T13:15:38;21.40;60.90
18388;DHT22;9320;50.256;19.026;2023-08-08T13:18:06;21.50;60.00
18388;DHT22;9320;50.256;19.026;2023-08-08T13:20:34;21.50;60.20
18388;DHT22;9320;50.256;19.026;2023-08-08T13:23:04;21.60;60.20
18388;DHT22;9320;50.256;19.026;2023-08-08T13:25:32;21.70;59.20
18388;DHT22;9320;50.256;19.026;2023-08-08T13:28:01;21.40;58.80
18388;DHT22;9320;50.256;19.026;2023-08-08T13:30:30;21.20;59.20
18388;DHT22;9320;50.256;19.026;2023-08-08T13:32:58;21.10;59.70
18388;DHT22;9320;50.256;19.026;2023-08-08T13:35:29;21.00;59.60
18388;DHT22;9320;50.256;19.026;2023-08-08T13:37:57;21.00;59.60
18388;DHT22;9320;50.256;19.026;2023-08-08T13:40:27;21.00;59.40
18388;DHT22;9320;50.256;19.026;2023-08-08T13:42:55;21.00;58.90
18388;DHT22;9320;50.256;19.026;2023-08-08T13:45:23;21.10;58.60
18388;DHT22;9320;50.256;19.026;2023-08-08T13:47:51;21.10;57.40
18388;DHT22;9320;50.256;19.026;2023-08-08T13:50:19;21.10;58.50
18388;DHT22;9320;50.256;19.026;2023-08-08T13:52:47;21.20;58.60
18388;DHT22;9320;50.256;19.026;2023-08-08T13:55:15;21.30;57.90
18388;DHT22;9320;50.256;19.026;2023-08-08T13:57:44;21.50;58.10
18388;DHT22;9320;50.256;19.026;2023-08-08T14:00:13;21.60;58.20
18388;DHT22;9320;50.256;19.026;2023-08-08T14:02:41;21.70;58.50
18388;DHT22;9320;50.256;19.026;2023-08-08T14:05:10;21.70;59.00
18388;DHT22;9320;50.256;19.026;2023-08-08T14:07:38;21.70;58.80
18388;DHT22;9320;50.256;19.026;2023-08-08T14:10:07;21.50;58.50
18388;DHT22;9320;50.256;19.026;2023-08-08T14:12:36;21.40;59.30
18388;DHT22;9320;50.256;19.026;2023-08-08T14:15:07;21.40;59.90
18388;DHT22;9320;50.256;19.026;2023-08-08T14:17:35;21.30;60.90
18388;DHT22;9320;50.256;19.026;2023-08-08T14:20:05;21.60;61.40
18388;DHT22;9320;50.256;19.026;2023-08-08T14:22:34;21.50;62.10
18388;DHT22;9320;50.256;19.026;2023-08-08T14:25:02;21.40;62.80
18388;DHT22;9320;50.256;19.026;2023-08-08T14:27:30;21.30;63.50
18388;DHT22;9320;50.256;19.026;2023-08-08T14:29:58;21.50;64.60
18388;DHT22;9320;50.256;19.026;2023-08-08T14:32:28;21.60;61.20
18388;DHT22;9320;50.256;19.026;2023-08-08T14:34:56;21.80;59.10
18388;DHT22;9320;50.256;19.026;2023-08-08T14:37:25;21.70;58.80
18388;DHT22;9320;50.256;19.026;2023-08-08T14:39:53;21.60;58.40
18388;DHT22;9320;50.256;19.026;2023-08-08T14:42:21;21.40;58.90
18388;DHT22;9320;50.256;19.026;2023-08-08T14:44:49;21.30;59.60
18388;DHT22;9320;50.256;19.026;2023-08-08T14:47:17;21.20;60.10
18388;DHT22;9320;50.256;19.026;2023-08-08T14:49:47;21.00;61.40
18388;DHT22;9320;50.256;19.026;2023-08-08T14:52:17;20.80;62.50
18388;DHT22;9320;50.256;19.026;2023-08-08T14:54:45;20.80;63.40
18388;DHT22;9320;50.256;19.026;2023-08-08T14:57:13;20.70;64.00
18388;DHT22;9320;50.256;19.026;2023-08-08T14:59:41;20.70;64.30
18388;DHT22;9320;50.256;19.026;2023-08-08T15:02:09;20.70;64.30
18388;DHT22;9320;50.256;19.026;2023-08-08T15:04:37;20.70;64.70
18388;DHT22;9320;50.256;19.026;2023-08-08T15:07:07;20.70;64.40
18388;DHT22;9320;50.256;19.026;2023-08-08T15:09:35;20.70;64.10
18388;DHT22;9320;50.256;19.026;2023-08-08T15:12:04;20.70;64.90
18388;DHT22;9320;50.256;19.026;2023-08-08T15:14:32;20.70;63.80
18388;DHT22;9320;50.256;19.026;2023-08-08T15:17:00;20.60;63.70
18388;DHT22;9320;50.256;19.026;2023-08-08T15:19:29;20.60;63.70
18388;DHT22;9320;50.256;19.026;2023-08-08T15:21:57;20.60;63.30
18388;DHT22;9320;50.256;19.026;2023-08-08T15:24:27;20.50;63.10
18388;DHT22;9320;50.256;19.026;2023-08-08T15:26:55;20.70;63.00
18388;DHT22;9320;50.256;19.026;2023-08-08T15:29:23;20.70;62.70
18388;DHT22;9320;50.256;19.026;2023-08-08T15:31:53;20.70;64.50
18388;DHT22;9320;50.256;19.026;2023-08-08T15:34:21;20.70;67.00
18388;DHT22;9320;50.256;19.026;2023-08-08T15:36:49;20.60;68.60
18388;DHT22;9320;50.256;19.026;2023-08-08T15:39:18;20.20;70.30